sensor_id;sensor_type;location;lat;lon;timestamp;pressure;altitude;pressure_sealevel;temperature;humidity
13594;BME280;6449;47.666;9.160;2023-08-20T00:04:46;97313.31;;;23.83;100.00
13594;BME280;6449;47.666;9.160;2023-08-20T00:09:41;97305.00;;;23.77;100.00
13594;BME280;6449;47.666;9.160;2023-08-20T00:14:56;97307.34;;;23.66;100.00
13594;BME280;6449;47.666;9.160;2023-08-20T00:19:51;97308.72;;;23.47;100.00
13594;BME280;6449;47.666;9.160;2023-08-20T00:24:46;97310.44;;;23.33;100.00
13594;BME280;6449;47.666;9.160;2023-08-20T00:29:40;97319.75;;;23.22;100.00
13594;BME280;6449;47.666;9.160;2023-08-20T00:34:34;97320.22;;;22.96;100.00
13594;BME280;6449;47.666;9.160;2023-08-20T00:39:28;97307.03;;;23.10;100.00
13594;BME280;6449;47.666;9.160;2023-08-20T00:44:21;97311.97;;;23.27;100.00
13594;BME280;6449;47.666;9.160;2023-08-20T00:49:15;97314.50;;;23.29;100.00
13594;BME280;6449;47.666;9.160;2023-08-20T00:54:10;97321.78;;;23.06;100.00
13594;BME280;6449;47.666;9.160;2023-08-20T00:59:05;97329.25;;;23.10;100.00
13594;BME280;6449;47.666;9.160;2023-08-20T01:03:59;97326.78;;;23.09;100.00
13594;BME280;6449;47.666;9.160;2023-08-20T01:09:02;97318.81;;;23.15;100.00
13594;BME280;6449;47.666;9.160;2023-08-20T01:13:59;97324.09;;;23.09;100.00
13594;BME280;6449;47.666;9.160;2023-08-20T01:18:53;97315.59;;;23.05;100.00
13594;BME280;6449;47.666;9.160;2023-08-20T01:24:06;97326.56;;;22.95;100.00
13594;BME280;6449;47.666;9.160;2023-08-20T01:29:06;97320.66;;;22.85;100.00
13594;BME280;6449;47.666;9.160;2023-08-20T01:34:02;97338.81;;;22.90;100.00
13594;BME280;6449;47.666;9.160;2023-08-20T01:38:56;97346.59;;;22.62;100.00
13594;BME280;6449;47.666;9.160;2023-08-20T01:43:49;97343.56;;;22.65;100.00
13594;BME280;6449;47.666;9.160;2023-08-20T01:48:44;97345.72;;;22.46;100.00
13594;BME280;6449;47.666;9.160;2023-08-20T01:53:37;97356.59;;;22.45;100.00
13594;BME280;6449;47.666;9.160;2023-08-20T01:58:31;97347.41;;;22.62;100.00
13594;BME280;6449;47.666;9.160;2023-08-20T02:03:24;97344.22;;;22.67;100.00
13594;BME280;6449;47.666;9.160;2023-08-20T02:08:20;97349.56;;;22.67;100.00
13594;BME280;6449;47.666;9.160;2023-08-20T02:13:14;97345.56;;;22.63;100.00
13594;BME280;6449;47.666;9.160;2023-08-20T02:18:07;97338.97;;;22.59;100.00
13594;BME280;6449;47.666;9.160;2023-08-20T02:23:01;97336.09;;;22.60;100.00
13594;BME280;6449;47.666;9.160;2023-08-20T02:27:55;97332.59;;;22.60;100.00
13594;BME280;6449;47.666;9.160;2023-08-20T02:32:49;97334.00;;;22.47;100.00
13594;BME280;6449;47.666;9.160;2023-08-20T02:37:42;97346.38;;;22.48;100.00
13594;BME280;6449;47.666;9.160;2023-08-20T02:42:36;97346.09;;;22.43;100.00
13594;BME280;6449;47.666;9.160;2023-08-20T02:47:30;97344.16;;;22.52;100.00
13594;BME280;6449;47.666;9.160;2023-08-20T02:52:25;97345.81;;;22.38;100.00
13594;BME280;6449;47.666;9.160;2023-08-20T02:57:18;97347.81;;;22.13;100.00
13594;BME280;6449;47.666;9.160;2023-08-20T03:02:12;97351.69;;;22.11;100.00
13594;BME280;6449;47.666;9.160;2023-08-20T03:07:07;97363.75;;;21.98;100.00
13594;BME280;6449;47.666;9.160;2023-08-20T03:12:01;97360.84;;;21.85;100.00
13594;BME280;6449;47.666;9.160;2023-08-20T03:16:54;97353.94;;;21.91;100.00
13594;BME280;6449;47.666;9.160;2023-08-20T03:21:47;97370.47;;;21.94;100.00
13594;BME280;6449;47.666;9.160;2023-08-20T03:26:42;97365.75;;;21.96;100.00
13594;BME280;6449;47.666;9.160;2023-08-20T03:31:35;97372.53;;;21.84;100.00
13594;BME280;6449;47.666;9.160;2023-08-20T03:36:29;97374.56;;;21.74;100.00
13594;BME280;6449;47.666;9.160;2023-08-20T03:41:22;97376.84;;;21.85;100.00
13594;BME280;6449;47.666;9.160;2023-08-20T03:46:17;97371.97;;;21.89;100.00
13594;BME280;6449;47.666;9.160;2023-08-20T03:51:10;97373.50;;;21.83;100.00
13594;BME280;6449;47.666;9.160;2023-08-20T03:56:05;97382.09;;;21.70;100.00
13594;BME280;6449;47.666;9.160;2023-08-20T04:00:58;97393.03;;;21.53;100.00
13594;BME280;6449;47.666;9.160;2023-08-20T04:05:53;97391.63;;;21.65;100.00
13594;BME280;6449;47.666;9.160;2023-08-20T04:10:46;97399.63;;;21.65;100.00
13594;BME280;6449;47.666;9.160;2023-08-20T04:15:40;97395.94;;;21.74;100.00
13594;BME280;6449;47.666;9.160;2023-08-20T04:20:34;97401.66;;;21.55;100.00
13594;BME280;6449;47.666;9.160;2023-08-20T04:25:28;97405.88;;;21.41;100.00
13594;BME280;6449;47.666;9.160;2023-08-20T04:30:22;97402.69;;;21.54;100.00
13594;BME280;6449;47.666;9.160;2023-08-20T04:35:15;97405.69;;;21.51;100.00
13594;BME280;6449;47.666;9.160;2023-08-20T04:40:10;97414.75;;;21.41;100.00
13594;BME280;6449;47.666;9.160;2023-08-20T04:45:08;97403.06;;;21.34;100.00
13594;BME280;6449;47.666;9.160;2023-08-20T04:50:03;97397.69;;;21.51;100.00
13594;BME280;6449;47.666;9.160;2023-08-20T04:54:58;97409.25;;;21.18;100.00
13594;BME280;6449;47.666;9.160;2023-08-20T04:59:52;97404.59;;;21.12;100.00
13594;BME280;6449;47.666;9.160;2023-08-20T05:04:48;97396.53;;;21.45;100.00
13594;BME280;6449;47.666;9.160;2023-08-20T05:09:42;97402.56;;;21.39;100.00
13594;BME280;6449;47.666;9.160;2023-08-20T05:14:35;97397.78;;;21.65;100.00
13594;BME280;6449;47.666;9.160;2023-08-20T05:19:30;97395.94;;;21.74;100.00
13594;BME280;6449;47.666;9.160;2023-08-20T05:24:25;97401.56;;;21.79;100.00
13594;BME280;6449;47.666;9.160;2023-08-20T05:29:19;97407.38;;;21.83;100.00
13594;BME280;6449;47.666;9.160;2023-08-20T05:34:12;97416.66;;;21.64;100.00
13594;BME280;6449;47.666;9.160;2023-08-20T05:39:05;97421.09;;;21.80;100.00
13594;BME280;6449;47.666;9.160;2023-08-20T05:44:00;97430.69;;;21.89;100.00
13594;BME280;6449;47.666;9.160;2023-08-20T05:48:54;97426.66;;;22.01;100.00
13594;BME280;6449;47.666;9.160;2023-08-20T05:53:47;97431.66;;;22.35;100.00
13594;BME280;6449;47.666;9.160;2023-08-20T05:58:40;97422.63;;;22.59;100.00
13594;BME280;6449;47.666;9.160;2023-08-20T06:03:35;97418.72;;;22.70;100.00
13594;BME280;6449;47.666;9.160;2023-08-20T06:08:28;97418.72;;;22.85;100.00
13594;BME280;6449;47.666;9.160;2023-08-20T06:13:22;97412.81;;;22.97;100.00
13594;BME280;6449;47.666;9.160;2023-08-20T06:18:15;97418.25;;;23.04;100.00
13594;BME280;6449;47.666;9.160;2023-08-20T06:23:10;97406.91;;;23.02;100.00
13594;BME280;6449;47.666;9.160;2023-08-20T06:28:19;97410.41;;;22.80;100.00
13594;BME280;6449;47.666;9.160;2023-08-20T06:33:12;97404.50;;;22.92;100.00
13594;BME280;6449;47.666;9.160;2023-08-20T06:38:05;97417.53;;;23.25;100.00
13594;BME280;6449;47.666;9.160;2023-08-20T06:43:00;97416.88;;;23.38;100.00
13594;BME280;6449;47.666;9.160;2023-08-20T06:47:54;97415.22;;;23.37;100.00
13594;BME280;6449;47.666;9.160;2023-08-20T06:52:47;97412.19;;;23.25;100.00
13594;BME280;6449;47.666;9.160;2023-08-20T06:57:40;97415.03;;;23.38;100.00
13594;BME280;6449;47.666;9.160;2023-08-20T07:02:38;97426.97;;;23.50;100.00
13594;BME280;6449;47.666;9.160;2023-08-20T07:07:31;97423.81;;;23.62;100.00
13594;BME280;6449;47.666;9.160;2023-08-20T07:12:25;97430.00;;;23.62;100.00
13594;BME280;6449;47.666;9.160;2023-08-20T07:17:20;97432.78;;;23.84;100.00
13594;BME280;6449;47.666;9.160;2023-08-20T07:22:15;97431.69;;;23.93;100.00
13594;BME280;6449;47.666;9.160;2023-08-20T07:27:10;97436.16;;;24.07;100.00
13594;BME280;6449;47.666;9.160;2023-08-20T07:32:05;97447.88;;;24.21;100.00
13594;BME280;6449;47.666;9.160;2023-08-20T07:36:58;97449.03;;;24.33;100.00
13594;BME280;6449;47.666;9.160;2023-08-20T07:41:53;97449.78;;;24.63;100.00
13594;BME280;6449;47.666;9.160;2023-08-20T07:46:46;97453.78;;;24.95;100.00
13594;BME280;6449;47.666;9.160;2023-08-20T07:51:40;97454.53;;;25.32;100.00
13594;BME280;6449;47.666;9.160;2023-08-20T07:56:33;97456.22;;;25.68;100.00
13594;BME280;6449;47.666;9.160;2023-08-20T08:01:28;97468.94;;;25.94;100.00
13594;BME280;6449;47.666;9.160;2023-08-20T08:06:27;97468.81;;;26.08;100.00
13594;BME280;6449;47.666;9.160;2023-08-20T08:11:20;97468.91;;;26.28;100.00
13594;BME280;6449;47.666;9.160;2023-08-20T08:16:14;97480.75;;;26.47;100.00
13594;BME280;6449;47.666;9.160;2023-08-20T08:21:09;97474.63;;;26.67;100.00
13594;BME280;6449;47.666;9.160;2023-08-20T08:26:02;97484.22;;;27.09;100.00
13594;BME280;6449;47.666;9.160;2023-08-20T08:30:55;97471.38;;;27.18;100.00
13594;BME280;6449;47.666;9.160;2023-08-20T08:35:50;97478.22;;;27.40;100.00
13594;BME280;6449;47.666;9.160;2023-08-20T08:40:46;97474.22;;;27.69;100.00
13594;BME280;6449;47.666;9.160;2023-08-20T08:45:42;97473.59;;;27.80;100.00
13594;BME280;6449;47.666;9.160;2023-08-20T08:50:36;97482.28;;;27.89;100.00
13594;BME280;6449;47.666;9.160;2023-08-20T08:55:32;97481.66;;;27.93;100.00
13594;BME280;6449;47.666;9.160;2023-08-20T09:00:27;97481.81;;;28.05;100.00
13594;BME280;6449;47.666;9.160;2023-08-20T09:05:22;97475.34;;;28.19;100.00
13594;BME280;6449;47.666;9.160;2023-08-20T09:10:17;97476.56;;;28.24;100.00
13594;BME280;6449;47.666;9.160;2023-08-20T09:15:12;97480.69;;;28.33;100.00
13594;BME280;6449;47.666;9.160;2023-08-20T09:20:08;97475.66;;;28.43;100.00
13594;BME280;6449;47.666;9.160;2023-08-20T09:25:02;97471.44;;;28.54;100.00
13594;BME280;6449;47.666;9.160;2023-08-20T09:29:57;97467.88;;;28.60;100.00
13594;BME280;6449;47.666;9.160;2023-08-20T09:34:52;97465.84;;;28.87;100.00
13594;BME280;6449;47.666;9.160;2023-08-20T09:39:47;97475.16;;;28.91;100.00
13594;BME280;6449;47.666;9.160;2023-08-20T09:44:43;97468.75;;;29.17;100.00
13594;BME280;6449;47.666;9.160;2023-08-20T09:49:45;97472.94;;;29.38;100.00
13594;BME280;6449;47.666;9.160;2023-08-20T09:55:00;97476.78;;;29.48;100.00
13594;BME280;6449;47.666;9.160;2023-08-20T09:59:58;97474.88;;;29.56;98.23
13594;BME280;6449;47.666;9.160;2023-08-20T10:04:53;97465.50;;;29.77;93.65
13594;BME280;6449;47.666;9.160;2023-08-20T10:09:47;97468.00;;;29.96;96.23
13594;BME280;6449;47.666;9.160;2023-08-20T10:14:44;97469.59;;;29.86;97.72
13594;BME280;6449;47.666;9.160;2023-08-20T10:19:38;97461.00;;;30.07;95.91
13594;BME280;6449;47.666;9.160;2023-08-20T10:24:41;97466.41;;;30.07;93.74
13594;BME280;6449;47.666;9.160;2023-08-20T10:29:40;97463.28;;;29.92;96.04
13594;BME280;6449;47.666;9.160;2023-08-20T10:34:37;97459.75;;;30.10;96.14
13594;BME280;6449;47.666;9.160;2023-08-20T10:39:31;97454.72;;;30.13;92.09
13594;BME280;6449;47.666;9.160;2023-08-20T10:44:24;97451.09;;;30.38;94.50
13594;BME280;6449;47.666;9.160;2023-08-20T10:49:18;97448.31;;;30.74;93.54
13594;BME280;6449;47.666;9.160;2023-08-20T10:54:12;97448.56;;;30.85;91.39
13594;BME280;6449;47.666;9.160;2023-08-20T10:59:08;97443.28;;;30.90;89.64
13594;BME280;6449;47.666;9.160;2023-08-20T11:04:04;97442.59;;;31.06;87.77
13594;BME280;6449;47.666;9.160;2023-08-20T11:09:08;97434.22;;;30.84;84.91
13594;BME280;6449;47.666;9.160;2023-08-20T11:14:07;97437.19;;;31.06;86.03
13594;BME280;6449;47.666;9.160;2023-08-20T11:19:01;97432.88;;;31.28;83.52
13594;BME280;6449;47.666;9.160;2023-08-20T11:23:59;97424.84;;;31.45;85.60
13594;BME280;6449;47.666;9.160;2023-08-20T11:28:58;97431.91;;;31.46;83.86
13594;BME280;6449;47.666;9.160;2023-08-20T11:34:18;97414.13;;;31.39;78.42
13594;BME280;6449;47.666;9.160;2023-08-20T11:39:11;97409.91;;;31.43;78.60
13594;BME280;6449;47.666;9.160;2023-08-20T11:44:05;97411.06;;;31.47;78.64
13594;BME280;6449;47.666;9.160;2023-08-20T11:49:05;97417.06;;;31.37;77.74
13594;BME280;6449;47.666;9.160;2023-08-20T11:54:00;97413.91;;;31.28;76.71
13594;BME280;6449;47.666;9.160;2023-08-20T11:59:00;97406.81;;;31.39;76.07
13594;BME280;6449;47.666;9.160;2023-08-20T12:04:06;97403.53;;;31.49;77.13
13594;BME280;6449;47.666;9.160;2023-08-20T12:09:00;97399.28;;;31.29;75.32
13594;BME280;6449;47.666;9.160;2023-08-20T12:13:55;97389.97;;;31.37;76.95
13594;BME280;6449;47.666;9.160;2023-08-20T12:18:49;97391.13;;;31.18;77.63
13594;BME280;6449;47.666;9.160;2023-08-20T12:23:45;97391.47;;;30.98;80.50
13594;BME280;6449;47.666;9.160;2023-08-20T12:28:38;97380.28;;;30.94;76.74
13594;BME280;6449;47.666;9.160;2023-08-20T12:33:33;97385.34;;;30.91;77.77
13594;BME280;6449;47.666;9.160;2023-08-20T12:38:28;97374.63;;;30.96;75.54
13594;BME280;6449;47.666;9.160;2023-08-20T12:43:27;97380.63;;;30.98;78.19
13594;BME280;6449;47.666;9.160;2023-08-20T12:48:21;97378.28;;;30.90;81.20
13594;BME280;6449;47.666;9.160;2023-08-20T12:53:14;97386.31;;;30.66;84.21
13594;BME280;6449;47.666;9.160;2023-08-20T12:58:08;97379.34;;;30.47;86.45
13594;BME280;6449;47.666;9.160;2023-08-20T13:03:04;97367.34;;;30.43;86.51
13594;BME280;6449;47.666;9.160;2023-08-20T13:07:58;97367.09;;;30.44;88.22
13594;BME280;6449;47.666;9.160;2023-08-20T13:12:53;97358.03;;;30.39;87.63
13594;BME280;6449;47.666;9.160;2023-08-20T13:17:49;97358.69;;;30.22;90.29
13594;BME280;6449;47.666;9.160;2023-08-20T13:22:44;97352.94;;;30.31;90.64
13594;BME280;6449;47.666;9.160;2023-08-20T13:27:37;97352.75;;;30.56;89.65
13594;BME280;6449;47.666;9.160;2023-08-20T13:32:31;97348.03;;;30.39;90.15
13594;BME280;6449;47.666;9.160;2023-08-20T13:37:24;97345.69;;;30.43;89.08
13594;BME280;6449;47.666;9.160;2023-08-20T13:42:19;97334.88;;;30.66;84.78
13594;BME280;6449;47.666;9.160;2023-08-20T13:47:14;97331.06;;;30.74;79.00
13594;BME280;6449;47.666;9.160;2023-08-20T13:52:07;97327.63;;;30.78;78.89
13594;BME280;6449;47.666;9.160;2023-08-20T13:57:00;97326.22;;;30.99;76.58
13594;BME280;6449;47.666;9.160;2023-08-20T14:01:56;97322.00;;;30.92;76.49
13594;BME280;6449;47.666;9.160;2023-08-20T14:06:50;97314.22;;;30.84;71.35
13594;BME280;6449;47.666;9.160;2023-08-20T14:11:43;97314.00;;;30.97;70.99
13594;BME280;6449;47.666;9.160;2023-08-20T14:16:37;97305.50;;;31.05;69.74
13594;BME280;6449;47.666;9.160;2023-08-20T14:21:31;97306.22;;;31.12;66.10
13594;BME280;6449;47.666;9.160;2023-08-20T14:26:25;97297.00;;;31.13;64.33
13594;BME280;6449;47.666;9.160;2023-08-20T14:31:18;97301.38;;;31.14;66.55
13594;BME280;6449;47.666;9.160;2023-08-20T14:36:12;97297.69;;;31.20;64.17
13594;BME280;6449;47.666;9.160;2023-08-20T14:41:07;97272.50;;;31.32;56.64
13594;BME280;6449;47.666;9.160;2023-08-20T14:46:00;97273.41;;;31.49;56.25
13594;BME280;6449;47.666;9.160;2023-08-20T14:50:54;97279.66;;;31.49;59.83
13594;BME280;6449;47.666;9.160;2023-08-20T14:55:47;97279.31;;;31.46;58.37
13594;BME280;6449;47.666;9.160;2023-08-20T15:00:44;97271.34;;;31.27;59.99
13594;BME280;6449;47.666;9.160;2023-08-20T15:05:38;97273.91;;;31.22;60.16
13594;BME280;6449;47.666;9.160;2023-08-20T15:10:34;97266.63;;;31.11;55.44
13594;BME280;6449;47.666;9.160;2023-08-20T15:15:27;97257.06;;;31.20;57.97
13594;BME280;6449;47.666;9.160;2023-08-20T15:20:22;97250.13;;;31.13;55.06
13594;BME280;6449;47.666;9.160;2023-08-20T15:25:16;97248.72;;;31.34;55.29
13594;BME280;6449;47.666;9.160;2023-08-20T15:30:11;97255.91;;;31.16;59.36
13594;BME280;6449;47.666;9.160;2023-08-20T15:35:06;97269.56;;;31.10;61.49
13594;BME280;6449;47.666;9.160;2023-08-20T15:40:01;97246.16;;;31.03;56.96
13594;BME280;6449;47.666;9.160;2023-08-20T15:44:57;97249.06;;;31.14;55.36
13594;BME280;6449;47.666;9.160;2023-08-20T15:49:51;97249.28;;;31.24;55.30
13594;BME280;6449;47.666;9.160;2023-08-20T15:54:44;97252.03;;;31.12;52.85
13594;BME280;6449;47.666;9.160;2023-08-20T15:59:39;97265.84;;;30.87;62.99
13594;BME280;6449;47.666;9.160;2023-08-20T16:04:33;97272.38;;;30.68;65.70
13594;BME280;6449;47.666;9.160;2023-08-20T16:09:27;97269.78;;;30.49;64.00
13594;BME280;6449;47.666;9.160;2023-08-20T16:14:34;97265.44;;;30.37;63.21
13594;BME280;6449;47.666;9.160;2023-08-20T16:19:28;97266.84;;;30.27;65.77
13594;BME280;6449;47.666;9.160;2023-08-20T16:24:22;97276.66;;;30.10;67.82
13594;BME280;6449;47.666;9.160;2023-08-20T16:29:16;97287.38;;;29.87;79.71
13594;BME280;6449;47.666;9.160;2023-08-20T16:34:09;97293.38;;;29.59;84.40
13594;BME280;6449;47.666;9.160;2023-08-20T16:39:07;97295.16;;;29.28;89.25
13594;BME280;6449;47.666;9.160;2023-08-20T16:44:00;97295.09;;;28.91;92.97
13594;BME280;6449;47.666;9.160;2023-08-20T16:48:53;97284.53;;;28.71;96.82
13594;BME280;6449;47.666;9.160;2023-08-20T16:53:47;97288.72;;;28.67;100.00
13594;BME280;6449;47.666;9.160;2023-08-20T16:58:42;97288.41;;;28.76;100.00
13594;BME280;6449;47.666;9.160;2023-08-20T17:03:37;97284.84;;;28.82;100.00
13594;BME280;6449;47.666;9.160;2023-08-20T17:08:31;97289.69;;;28.91;100.00
13594;BME280;6449;47.666;9.160;2023-08-20T17:13:24;97292.97;;;29.00;100.00
13594;BME280;6449;47.666;9.160;2023-08-20T17:18:19;97287.16;;;29.03;100.00
13594;BME280;6449;47.666;9.160;2023-08-20T17:23:13;97289.84;;;29.03;100.00
13594;BME280;6449;47.666;9.160;2023-08-20T17:28:09;97283.81;;;29.01;100.00
13594;BME280;6449;47.666;9.160;2023-08-20T17:33:04;97292.47;;;28.85;100.00
13594;BME280;6449;47.666;9.160;2023-08-20T17:38:01;97289.03;;;28.78;100.00
13594;BME280;6449;47.666;9.160;2023-08-20T17:42:55;97283.75;;;28.64;100.00
13594;BME280;6449;47.666;9.160;2023-08-20T17:47:52;97299.19;;;28.26;100.00
13594;BME280;6449;47.666;9.160;2023-08-20T17:52:45;97295.19;;;28.03;100.00
13594;BME280;6449;47.666;9.160;2023-08-20T17:57:40;97302.28;;;27.98;100.00
13594;BME280;6449;47.666;9.160;2023-08-20T18:02:34;97309.56;;;27.90;100.00
13594;BME280;6449;47.666;9.160;2023-08-20T18:07:27;97307.09;;;27.89;100.00
13594;BME280;6449;47.666;9.160;2023-08-20T18:12:21;97309.56;;;27.90;100.00
13594;BME280;6449;47.666;9.160;2023-08-20T18:17:16;97316.44;;;27.86;100.00
13594;BME280;6449;47.666;9.160;2023-08-20T18:22:09;97316.09;;;27.76;100.00
13594;BME280;6449;47.666;9.160;2023-08-20T18:27:03;97325.25;;;27.55;100.00
13594;BME280;6449;47.666;9.160;2023-08-20T18:31:57;97323.84;;;27.46;100.00
13594;BME280;6449;47.666;9.160;2023-08-20T18:36:52;97331.69;;;27.54;100.00
13594;BME280;6449;47.666;9.160;2023-08-20T18:41:48;97329.91;;;27.28;100.00
13594;BME280;6449;47.666;9.160;2023-08-20T18:46:42;97346.72;;;26.84;100.00
13594;BME280;6449;47.666;9.160;2023-08-20T18:51:35;97349.19;;;26.99;100.00
13594;BME280;6449;47.666;9.160;2023-08-20T18:56:30;97359.13;;;27.05;100.00
13594;BME280;6449;47.666;9.160;2023-08-20T19:01:23;97367.22;;;26.85;100.00
13594;BME280;6449;47.666;9.160;2023-08-20T19:06:17;97372.81;;;26.97;100.00
13594;BME280;6449;47.666;9.160;2023-08-20T19:11:11;97386.28;;;26.63;100.00
13594;BME280;6449;47.666;9.160;2023-08-20T19:16:06;97395.44;;;26.15;100.00
13594;BME280;6449;47.666;9.160;2023-08-20T19:21:01;97399.38;;;26.12;100.00
13594;BME280;6449;47.666;9.160;2023-08-20T19:25:55;97401.31;;;26.38;100.00
13594;BME280;6449;47.666;9.160;2023-08-20T19:30:54;97409.63;;;26.56;100.00
13594;BME280;6449;47.666;9.160;2023-08-20T19:35:51;97412.97;;;25.97;100.00
13594;BME280;6449;47.666;9.160;2023-08-20T19:40:48;97407.56;;;25.84;100.00
13594;BME280;6449;47.666;9.160;2023-08-20T19:45:46;97413.19;;;25.61;100.00
13594;BME280;6449;47.666;9.160;2023-08-20T19:50:39;97413.59;;;25.30;100.00
13594;BME280;6449;47.666;9.160;2023-08-20T19:55:34;97423.72;;;25.28;100.00
13594;BME280;6449;47.666;9.160;2023-08-20T20:00:28;97423.66;;;25.49;100.00
13594;BME280;6449;47.666;9.160;2023-08-20T20:05:22;97420.38;;;25.54;100.00
13594;BME280;6449;47.666;9.160;2023-08-20T20:10:16;97420.59;;;25.52;100.00
13594;BME280;6449;47.666;9.160;2023-08-20T20:15:17;97425.53;;;25.21;100.00
13594;BME280;6449;47.666;9.160;2023-08-20T20:20:14;97426.09;;;24.88;100.00
13594;BME280;6449;47.666;9.160;2023-08-20T20:25:08;97427.09;;;25.08;100.00
13594;BME280;6449;47.666;9.160;2023-08-20T20:30:04;97434.47;;;25.28;100.00
13594;BME280;6449;47.666;9.160;2023-08-20T20:34:59;97434.91;;;25.31;100.00
13594;BME280;6449;47.666;9.160;2023-08-20T20:39:53;97441.53;;;24.86;100.00
13594;BME280;6449;47.666;9.160;2023-08-20T20:44:47;97438.97;;;24.99;100.00
13594;BME280;6449;47.666;9.160;2023-08-20T20:49:41;97442.34;;;25.08;100.00
13594;BME280;6449;47.666;9.160;2023-08-20T20:54:36;97444.66;;;25.11;100.00
13594;BME280;6449;47.666;9.160;2023-08-20T20:59:35;97447.16;;;24.91;100.00
13594;BME280;6449;47.666;9.160;2023-08-20T21:04:28;97440.91;;;24.84;100.00
13594;BME280;6449;47.666;9.160;2023-08-20T21:09:22;97452.66;;;24.83;100.00
13594;BME280;6449;47.666;9.160;2023-08-20T21:14:18;97449.31;;;25.02;100.00
13594;BME280;6449;47.666;9.160;2023-08-20T21:19:20;97452.56;;;25.19;100.00
13594;BME280;6449;47.666;9.160;2023-08-20T21:24:13;97463.38;;;25.04;100.00
13594;BME280;6449;47.666;9.160;2023-08-20T21:29:08;97465.06;;;24.63;100.00
13594;BME280;6449;47.666;9.160;2023-08-20T21:34:03;97468.63;;;24.70;100.00
13594;BME280;6449;47.666;9.160;2023-08-20T21:38:58;97471.97;;;24.72;100.00
13594;BME280;6449;47.666;9.160;2023-08-20T21:43:52;97467.94;;;24.61;100.00
13594;BME280;6449;47.666;9.160;2023-08-20T21:48:47;97466.53;;;24.29;100.00
13594;BME280;6449;47.666;9.160;2023-08-20T21:53:49;97480.03;;;24.21;100.00
13594;BME280;6449;47.666;9.160;2023-08-20T21:58:42;97483.53;;;24.36;100.00
13594;BME280;6449;47.666;9.160;2023-08-20T22:03:35;97479.34;;;24.48;100.00
13594;BME280;6449;47.666;9.160;2023-08-20T22:08:29;97470.41;;;24.41;100.00
13594;BME280;6449;47.666;9.160;2023-08-20T22:13:24;97482.97;;;24.41;100.00
13594;BME280;6449;47.666;9.160;2023-08-20T22:18:18;97482.41;;;24.45;100.00
13594;BME280;6449;47.666;9.160;2023-08-20T22:23:11;97484.31;;;24.51;100.00
13594;BME280;6449;47.666;9.160;2023-08-20T22:28:05;97477.97;;;24.38;100.00
13594;BME280;6449;47.666;9.160;2023-08-20T22:33:00;97480.38;;;24.18;100.00
13594;BME280;6449;47.666;9.160;2023-08-20T22:38:06;97475.91;;;24.03;100.00
13594;BME280;6449;47.666;9.160;2023-08-20T22:42:59;97474.06;;;24.04;100.00
13594;BME280;6449;47.666;9.160;2023-08-20T22:47:54;97480.72;;;23.93;100.00
13594;BME280;6449;47.666;9.160;2023-08-20T22:52:51;97481.63;;;24.00;100.00
13594;BME280;6449;47.666;9.160;2023-08-20T22:57:45;97488.34;;;24.11;100.00
13594;BME280;6449;47.666;9.160;2023-08-20T23:02:38;97483.34;;;24.23;100.00
13594;BME280;6449;47.666;9.160;2023-08-20T23:07:32;97481.03;;;24.20;100.00
13594;BME280;6449;47.666;9.160;2023-08-20T23:12:27;97484.00;;;24.10;100.00
13594;BME280;6449;47.666;9.160;2023-08-20T23:17:20;97486.06;;;24.08;100.00
13594;BME280;6449;47.666;9.160;2023-08-20T23:22:14;97478.03;;;23.93;100.00
13594;BME280;6449;47.666;9.160;2023-08-20T23:27:10;97481.19;;;23.82;100.00
13594;BME280;6449;47.666;9.160;2023-08-20T23:32:05;97479.97;;;23.70;100.00
13594;BME280;6449;47.666;9.160;2023-08-20T23:36:58;97477.28;;;23.70;100.00
13594;BME280;6449;47.666;9.160;2023-08-20T23:41:52;97478.94;;;23.56;100.00
13594;BME280;6449;47.666;9.160;2023-08-20T23:46:45;97478.03;;;23.49;100.00
13594;BME280;6449;47.666;9.160;2023-08-20T23:51:41;97478.66;;;23.51;100.00
13594;BME280;6449;47.666;9.160;2023-08-20T23:56:34;97482.66;;;23.70;100.00
